<?xml version="1.0" encoding="UTF-8" standalone="no" ?>
<gpx xmlns="http://www.topografix.com/GPX/1/1" xmlns:xsi="http://www.w3.org/2001/XMLSchema-instance" xsi:schemaLocation="http://www.topografix.com/GPX/1/1 http://www.topografix.com/GPX/1/1/gpx.xsd" version="1.1" creator="VisuGPX - https://www.visugpx.com">
  <metadata>
    <name>MouilleronPareds_MoulinsRochers_6.4km</name>
    <desc><![CDATA[gnerando idor:7848808]]></desc>
  </metadata>
  <trk>
    <name><![CDATA[Mouilleronp_6.4km-7848808]]></name>
    <extensions>
      <line xmlns="http://www.topografix.com/GPX/gpx_style/0/2">
        <color>0000FF</color>
        <width>4</width>
      </line>
    </extensions>
    <trkseg>
      <trkpt lat="46.67678" lon="-0.84707">
        <ele>106</ele>
        <time>2023-11-05T14:43:14Z</time>
      </trkpt>
      <trkpt lat="46.67609" lon="-0.84594">
        <ele>105</ele>
        <time>2023-11-05T14:45:33Z</time>
      </trkpt>
      <trkpt lat="46.67644" lon="-0.8444">
        <ele>112</ele>
        <time>2023-11-05T14:48:01Z</time>
      </trkpt>
      <trkpt lat="46.67624" lon="-0.84303">
        <ele>119</ele>
        <time>2023-11-05T14:50:09Z</time>
      </trkpt>
      <trkpt lat="46.6755" lon="-0.83981">
        <ele>128</ele>
        <time>2023-11-05T14:55:20Z</time>
      </trkpt>
      <trkpt lat="46.67576" lon="-0.83693">
        <ele>140</ele>
        <time>2023-11-05T14:59:46Z</time>
      </trkpt>
      <trkpt lat="46.67473" lon="-0.83401">
        <ele>152</ele>
        <time>2023-11-05T15:04:47Z</time>
      </trkpt>
      <trkpt lat="46.67194" lon="-0.8253">
        <ele>172</ele>
        <time>2023-11-05T15:19:27Z</time>
      </trkpt>
      <trkpt lat="46.6707" lon="-0.82135">
        <ele>178</ele>
        <time>2023-11-05T15:26:05Z</time>
      </trkpt>
      <trkpt lat="46.66946" lon="-0.81822">
        <ele>172</ele>
        <time>2023-11-05T15:31:36Z</time>
      </trkpt>
      <trkpt lat="46.67026" lon="-0.81728">
        <ele>169</ele>
        <time>2023-11-05T15:33:53Z</time>
      </trkpt>
      <trkpt lat="46.6689" lon="-0.81449">
        <ele>168</ele>
        <time>2023-11-05T15:39:06Z</time>
      </trkpt>
      <trkpt lat="46.66846" lon="-0.81346">
        <ele>165</ele>
        <time>2023-11-05T15:40:57Z</time>
      </trkpt>
      <trkpt lat="46.66887" lon="-0.81226">
        <ele>162</ele>
        <time>2023-11-05T15:43:00Z</time>
      </trkpt>
      <trkpt lat="46.66884" lon="-0.80929">
        <ele>136</ele>
        <time>2023-11-05T15:47:32Z</time>
      </trkpt>
      <trkpt lat="46.66985" lon="-0.80964">
        <ele>134</ele>
        <time>2023-11-05T15:49:51Z</time>
      </trkpt>
      <trkpt lat="46.66929" lon="-0.81105">
        <ele>150</ele>
        <time>2023-11-05T15:52:20Z</time>
      </trkpt>
      <trkpt lat="46.66996" lon="-0.81436">
        <ele>161</ele>
        <time>2023-11-05T15:57:36Z</time>
      </trkpt>
      <trkpt lat="46.67079" lon="-0.81796">
        <ele>167</ele>
        <time>2023-11-05T16:03:24Z</time>
      </trkpt>
      <trkpt lat="46.67185" lon="-0.82122">
        <ele>169</ele>
        <time>2023-11-05T16:08:54Z</time>
      </trkpt>
      <trkpt lat="46.67258" lon="-0.8241">
        <ele>171</ele>
        <time>2023-11-05T16:13:35Z</time>
      </trkpt>
      <trkpt lat="46.6725" lon="-0.8247">
        <ele>171</ele>
        <time>2023-11-05T16:14:31Z</time>
      </trkpt>
      <trkpt lat="46.67185" lon="-0.82569">
        <ele>172</ele>
        <time>2023-11-05T16:16:36Z</time>
      </trkpt>
      <trkpt lat="46.67482" lon="-0.83358">
        <ele>154</ele>
        <time>2023-11-05T16:30:20Z</time>
      </trkpt>
      <trkpt lat="46.676" lon="-0.83685">
        <ele>139</ele>
        <time>2023-11-05T16:35:59Z</time>
      </trkpt>
      <trkpt lat="46.67582" lon="-0.83985">
        <ele>130</ele>
        <time>2023-11-05T16:40:34Z</time>
      </trkpt>
      <trkpt lat="46.67641" lon="-0.84491">
        <ele>109</ele>
        <time>2023-11-05T16:48:24Z</time>
      </trkpt>
      <trkpt lat="46.67638" lon="-0.84697">
        <ele>104</ele>
        <time>2023-11-05T16:51:33Z</time>
      </trkpt>
    </trkseg>
  </trk>
</gpx>